Time;durP1;ratioP1;P1;durP2;ratioP2;P2;SDS_P1;SDS_P2;PMS_P1;PMS_P2;Temp;Humidity;BMP_temperature;BMP_pressure;BME280_temperature;BME280_humidity;BME280_pressure;Samples;Min_cycle;Max_cycle;Signal;HPM_P1;HPM_P2
2021/07/17 00:01:22;;;;;;;7.63;3.90;;;18.90;99.90;;;;;;4963329;28;20185;-79
2021/07/17 00:03:48;;;;;;;8.80;4.28;;;18.90;99.90;;;;;;4964417;28;20181;-77
2021/07/17 00:06:13;;;;;;;10.55;4.93;;;19.00;99.90;;;;;;4964030;28;20196;-79
2021/07/17 00:08:40;;;;;;;7.30;4.45;;;19.00;99.90;;;;;;4965223;28;21047;-79
2021/07/17 00:11:05;;;;;;;7.05;4.32;;;19.10;99.90;;;;;;4963976;28;20190;-78
2021/07/17 00:13:31;;;;;;;6.30;4.35;;;19.10;99.90;;;;;;4961817;28;20189;-79
2021/07/17 00:15:57;;;;;;;7.72;4.25;;;19.10;99.90;;;;;;4960609;28;20185;-78
2021/07/17 00:18:23;;;;;;;9.82;5.15;;;19.10;99.90;;;;;;4960882;28;20248;-79
2021/07/17 00:20:49;;;;;;;5.85;4.85;;;19.10;99.90;;;;;;4977950;28;20196;-79
2021/07/17 00:23:15;;;;;;;6.93;4.40;;;19.10;99.90;;;;;;4962076;28;20213;-78
2021/07/17 00:25:43;;;;;;;8.25;4.47;;;19.20;99.90;;;;;;4964560;28;20209;-81
2021/07/17 00:28:09;;;;;;;9.95;5.55;;;19.20;99.90;;;;;;4954468;28;20451;-81
2021/07/17 00:30:35;;;;;;;8.05;4.22;;;19.20;99.90;;;;;;4970069;28;20241;-80
2021/07/17 00:33:01;;;;;;;5.28;3.88;;;19.20;99.90;;;;;;4961902;28;20190;-78
2021/07/17 00:35:26;;;;;;;7.93;4.70;;;19.10;99.90;;;;;;4962196;28;20276;-79
2021/07/17 00:37:52;;;;;;;8.45;4.57;;;18.90;99.90;;;;;;4961544;28;20315;-78
2021/07/17 00:40:21;;;;;;;8.57;4.13;;;19.00;99.90;;;;;;4961868;28;20272;-78
2021/07/17 00:42:48;;;;;;;8.38;4.68;;;18.90;99.90;;;;;;4961058;28;20212;-78
2021/07/17 00:45:14;;;;;;;13.07;4.97;;;18.90;99.90;;;;;;4960538;28;20185;-78
2021/07/17 00:47:40;;;;;;;12.30;5.10;;;19.00;99.90;;;;;;4959816;28;20248;-78
2021/07/17 00:50:12;;;;;;;10.25;5.03;;;19.00;99.90;;;;;;4959443;28;20647;-79
2021/07/17 00:52:38;;;;;;;7.97;5.07;;;19.00;99.90;;;;;;4958341;28;20264;-78
2021/07/17 00:55:06;;;;;;;8.60;5.25;;;19.00;99.90;;;;;;4958343;28;20273;-78
2021/07/17 00:57:33;;;;;;;11.10;5.13;;;18.90;99.90;;;;;;4960598;28;20216;-78
2021/07/17 01:00:00;;;;;;;10.80;5.53;;;18.90;99.90;;;;;;4962134;28;20281;-79
2021/07/17 01:02:29;;;;;;;10.25;5.10;;;18.90;99.90;;;;;;4963137;28;20316;-79
2021/07/17 01:04:56;;;;;;;9.07;5.28;;;18.90;99.90;;;;;;4962135;28;20225;-79
2021/07/17 01:07:25;;;;;;;8.93;4.88;;;18.90;99.90;;;;;;4957439;28;20206;-79
2021/07/17 01:09:51;;;;;;;10.52;5.60;;;18.90;99.90;;;;;;4949044;28;20182;-80
2021/07/17 01:12:17;;;;;;;9.82;6.03;;;18.90;99.90;;;;;;4960459;28;20181;-79
2021/07/17 01:14:43;;;;;;;10.93;5.60;;;18.90;99.90;;;;;;4955205;28;20204;-79
2021/07/17 01:17:08;;;;;;;12.00;6.43;;;18.90;99.90;;;;;;4962674;28;20272;-79
2021/07/17 01:19:34;;;;;;;9.45;5.32;;;18.90;99.90;;;;;;4960965;28;20660;-79
2021/07/17 01:22:00;;;;;;;13.77;5.65;;;18.90;99.90;;;;;;4962278;28;20264;-78
2021/07/17 01:24:25;;;;;;;9.30;5.57;;;18.90;99.90;;;;;;4962450;28;20185;-78
2021/07/17 01:26:52;;;;;;;9.73;5.63;;;18.90;99.90;;;;;;4962887;28;20193;-80
2021/07/17 01:29:18;;;;;;;8.35;5.47;;;18.90;99.90;;;;;;4960866;28;20182;-79
2021/07/17 01:31:44;;;;;;;8.00;5.07;;;18.90;99.90;;;;;;4961325;28;20173;-80
2021/07/17 01:34:10;;;;;;;7.40;5.68;;;18.90;99.90;;;;;;4960915;28;20284;-79
2021/07/17 01:36:37;;;;;;;14.02;6.40;;;18.90;99.90;;;;;;4959859;28;20181;-79
2021/07/17 01:39:04;;;;;;;11.55;7.03;;;18.90;99.90;;;;;;4959833;28;20217;-79
2021/07/17 01:41:30;;;;;;;11.75;6.00;;;18.90;99.90;;;;;;4969205;28;20185;-79
2021/07/17 01:43:57;;;;;;;8.82;5.70;;;18.80;99.90;;;;;;4961602;28;20173;-78
2021/07/17 01:46:23;;;;;;;12.95;6.82;;;18.70;99.90;;;;;;4975413;28;20185;-79
2021/07/17 01:48:51;;;;;;;11.70;6.65;;;18.70;99.90;;;;;;4960341;28;20992;-77
2021/07/17 01:51:16;;;;;;;14.65;6.45;;;18.80;99.90;;;;;;4952805;28;20200;-80
2021/07/17 01:53:42;;;;;;;18.20;6.40;;;18.70;99.90;;;;;;4960817;28;20565;-79
2021/07/17 01:56:08;;;;;;;12.05;6.75;;;18.70;99.90;;;;;;4961126;28;20185;-78
2021/07/17 01:58:34;;;;;;;12.68;7.25;;;18.70;99.90;;;;;;4961863;28;20205;-79
2021/07/17 02:00:59;;;;;;;12.30;6.65;;;18.70;99.90;;;;;;4960286;28;20192;-79
2021/07/17 02:03:25;;;;;;;15.13;7.20;;;18.60;99.90;;;;;;4960091;28;20219;-79
2021/07/17 02:05:50;;;;;;;12.77;7.25;;;18.60;99.90;;;;;;4951113;28;20300;-77
2021/07/17 02:08:16;;;;;;;13.15;6.38;;;18.60;99.90;;;;;;4960252;28;20671;-79
2021/07/17 02:10:42;;;;;;;17.38;7.70;;;18.60;99.90;;;;;;4960748;28;20188;-79
2021/07/17 02:13:10;;;;;;;12.88;7.60;;;18.50;99.90;;;;;;4959626;28;20200;-79
2021/07/17 02:15:48;;;;;;;9.45;6.55;;;18.50;99.90;;;;;;4958669;28;20193;-79
2021/07/17 02:18:15;;;;;;;12.02;7.15;;;18.50;99.90;;;;;;4960313;28;20726;-78
2021/07/17 02:20:42;;;;;;;11.02;6.80;;;18.40;99.90;;;;;;4960307;28;20193;-78
2021/07/17 02:23:09;;;;;;;18.30;7.45;;;18.50;99.90;;;;;;4959784;28;20216;-78
2021/07/17 02:25:34;;;;;;;11.00;7.00;;;18.50;99.90;;;;;;4960000;28;20181;-79
2021/07/17 02:28:00;;;;;;;12.77;7.38;;;18.40;99.90;;;;;;4959935;28;20575;-79
2021/07/17 02:30:26;;;;;;;15.25;8.68;;;18.40;99.90;;;;;;4960479;28;20216;-79
2021/07/17 02:32:52;;;;;;;11.05;7.60;;;18.40;99.90;;;;;;4959359;28;20189;-79
2021/07/17 02:35:17;;;;;;;16.25;8.45;;;18.40;99.90;;;;;;4960264;28;20182;-79
2021/07/17 02:37:43;;;;;;;9.95;7.57;;;18.40;99.90;;;;;;4959526;28;20242;-79
2021/07/17 02:40:09;;;;;;;10.40;7.05;;;18.30;99.90;;;;;;4951297;28;20545;-79
2021/07/17 02:42:35;;;;;;;12.82;7.32;;;18.30;99.90;;;;;;4960878;28;20272;-79
2021/07/17 02:45:02;;;;;;;12.60;8.10;;;18.30;99.90;;;;;;4961712;28;20181;-79
2021/07/17 02:47:28;;;;;;;12.50;8.10;;;18.30;99.90;;;;;;4949473;28;20201;-79
2021/07/17 02:49:53;;;;;;;14.50;9.85;;;18.30;99.90;;;;;;4959496;28;20440;-79
2021/07/17 02:52:19;;;;;;;18.67;8.90;;;18.20;99.90;;;;;;4957528;28;20216;-78
2021/07/17 02:54:44;;;;;;;14.43;9.52;;;18.10;99.90;;;;;;4960043;28;20260;-78
2021/07/17 02:57:10;;;;;;;14.07;8.95;;;18.10;99.90;;;;;;4959428;28;20213;-78
2021/07/17 02:59:36;;;;;;;18.50;10.88;;;18.10;99.90;;;;;;4958737;28;20185;-78
2021/07/17 03:02:02;;;;;;;19.17;9.98;;;18.00;99.90;;;;;;4958916;28;20213;-81
2021/07/17 03:04:27;;;;;;;16.60;10.07;;;18.10;99.90;;;;;;4958632;28;20283;-79
2021/07/17 03:06:53;;;;;;;17.67;10.85;;;18.10;99.90;;;;;;4960403;28;20196;-79
2021/07/17 03:09:18;;;;;;;18.23;10.57;;;18.10;99.90;;;;;;4961087;28;20181;-78
2021/07/17 03:11:44;;;;;;;19.80;11.82;;;18.00;99.90;;;;;;4958672;28;20255;-78
2021/07/17 03:14:10;;;;;;;15.68;9.52;;;18.10;99.90;;;;;;4967003;28;20178;-78
2021/07/17 03:16:37;;;;;;;12.65;8.43;;;18.10;99.90;;;;;;4959883;28;20200;-78
2021/07/17 03:19:03;;;;;;;11.20;8.07;;;18.10;99.90;;;;;;4958896;28;20897;-78
2021/07/17 03:21:30;;;;;;;16.83;8.10;;;18.10;99.90;;;;;;4960029;28;20196;-78
2021/07/17 03:23:56;;;;;;;13.73;7.75;;;18.00;99.90;;;;;;4959712;28;20216;-78
2021/07/17 03:26:23;;;;;;;15.50;8.27;;;18.00;99.90;;;;;;4958824;28;20213;-78
2021/07/17 03:28:49;;;;;;;10.88;7.32;;;18.00;99.90;;;;;;4959255;28;20192;-78
2021/07/17 03:31:15;;;;;;;13.63;8.45;;;18.00;99.90;;;;;;4959252;28;20196;-78
2021/07/17 03:33:41;;;;;;;12.95;7.50;;;18.00;99.90;;;;;;4959285;28;20200;-79
2021/07/17 03:36:07;;;;;;;13.40;7.97;;;18.00;99.90;;;;;;4949530;28;20232;-79
2021/07/17 03:38:33;;;;;;;12.25;7.43;;;17.90;99.90;;;;;;4956511;28;20228;-77
2021/07/17 03:40:59;;;;;;;18.83;9.38;;;18.00;99.90;;;;;;4948025;28;20865;-78
2021/07/17 03:43:24;;;;;;;20.67;9.25;;;18.00;99.90;;;;;;4943905;28;20619;-79
2021/07/17 03:45:50;;;;;;;16.05;9.23;;;18.00;99.90;;;;;;4955731;28;20182;-78
2021/07/17 03:48:15;;;;;;;11.95;9.30;;;18.00;99.90;;;;;;4954142;28;20202;-78
2021/07/17 03:50:41;;;;;;;12.77;7.90;;;18.00;99.90;;;;;;4948301;28;20209;-78
2021/07/17 03:53:07;;;;;;;14.77;9.50;;;18.00;99.90;;;;;;4951556;28;20264;-78
2021/07/17 03:55:32;;;;;;;15.50;9.43;;;18.00;99.90;;;;;;4956374;28;20185;-78
2021/07/17 03:57:58;;;;;;;16.52;9.60;;;18.00;99.90;;;;;;4947708;28;20205;-78
2021/07/17 04:00:23;;;;;;;15.18;9.02;;;18.10;99.90;;;;;;4957516;28;20263;-78
2021/07/17 04:02:49;;;;;;;13.55;8.45;;;18.00;99.90;;;;;;4958857;28;20211;-78
2021/07/17 04:05:19;;;;;;;13.18;8.68;;;18.00;99.90;;;;;;4960177;28;20193;-80
2021/07/17 04:07:45;;;;;;;15.25;8.13;;;18.10;99.90;;;;;;4965437;28;20233;-78
2021/07/17 04:10:11;;;;;;;14.82;8.20;;;18.10;99.90;;;;;;4960052;28;20181;-78
2021/07/17 04:12:37;;;;;;;13.95;8.90;;;18.10;99.90;;;;;;4965680;28;20566;-78
2021/07/17 04:15:05;;;;;;;16.65;8.50;;;18.10;99.90;;;;;;4958036;28;20192;-78
2021/07/17 04:17:31;;;;;;;19.00;8.48;;;18.10;99.90;;;;;;4961018;28;20324;-78
2021/07/17 04:19:57;;;;;;;14.77;7.68;;;18.10;99.90;;;;;;4958498;28;20185;-78
2021/07/17 04:22:23;;;;;;;12.32;7.75;;;18.10;99.90;;;;;;4959091;28;20227;-77
2021/07/17 04:24:49;;;;;;;13.57;7.20;;;18.10;99.90;;;;;;4949627;28;20666;-79
2021/07/17 04:27:14;;;;;;;14.35;7.75;;;18.10;99.90;;;;;;4959214;28;20215;-79
2021/07/17 04:29:41;;;;;;;13.27;8.82;;;18.10;99.90;;;;;;4959418;28;20193;-79
2021/07/17 04:32:07;;;;;;;14.38;7.82;;;18.20;99.90;;;;;;4958915;28;20188;-78
2021/07/17 04:34:32;;;;;;;12.38;8.10;;;18.30;99.90;;;;;;4960140;28;20178;-79
2021/07/17 04:36:58;;;;;;;16.83;9.52;;;18.20;99.90;;;;;;4962566;28;20201;-77
2021/07/17 04:39:25;;;;;;;16.88;8.65;;;18.20;99.90;;;;;;4962293;28;20200;-78
2021/07/17 04:41:50;;;;;;;13.85;7.30;;;18.20;99.90;;;;;;4970203;28;20185;-78
2021/07/17 04:44:16;;;;;;;13.18;7.47;;;18.20;99.90;;;;;;4964215;28;20186;-77
2021/07/17 04:46:42;;;;;;;13.95;8.10;;;18.20;99.90;;;;;;4963631;28;20225;-78
2021/07/17 04:49:07;;;;;;;17.33;8.15;;;18.20;99.90;;;;;;4962168;28;20193;-78
2021/07/17 04:51:33;;;;;;;14.75;6.82;;;18.30;99.90;;;;;;4952846;28;20695;-79
2021/07/17 04:53:59;;;;;;;18.65;8.27;;;18.20;99.90;;;;;;4962715;28;20190;-79
2021/07/17 04:56:24;;;;;;;12.63;7.75;;;18.30;99.90;;;;;;4961818;28;20465;-78
2021/07/17 04:58:50;;;;;;;15.57;7.75;;;18.20;99.90;;;;;;4961398;28;20374;-78
2021/07/17 05:01:18;;;;;;;16.50;7.88;;;18.30;99.90;;;;;;4963682;28;20185;-79
2021/07/17 05:03:43;;;;;;;11.30;6.70;;;18.30;99.90;;;;;;4961434;28;20239;-79
2021/07/17 05:06:09;;;;;;;12.65;7.88;;;18.30;99.90;;;;;;4961216;28;20302;-78
2021/07/17 05:08:35;;;;;;;12.32;7.25;;;18.30;99.90;;;;;;4963535;28;20199;-78
2021/07/17 05:11:00;;;;;;;10.15;6.97;;;18.20;99.90;;;;;;4961910;28;20196;-78
2021/07/17 05:13:26;;;;;;;13.70;7.55;;;18.10;99.90;;;;;;4961525;28;20188;-80
2021/07/17 05:15:52;;;;;;;15.13;7.50;;;18.10;99.90;;;;;;4961473;28;20663;-79
2021/07/17 05:18:19;;;;;;;15.45;7.57;;;18.20;99.90;;;;;;4968438;28;20204;-78
2021/07/17 05:20:45;;;;;;;14.50;8.15;;;18.20;99.90;;;;;;4961940;28;21183;-78
2021/07/17 05:23:11;;;;;;;17.15;6.93;;;18.20;99.90;;;;;;4952033;28;20205;-79
2021/07/17 05:25:37;;;;;;;16.33;7.13;;;18.20;99.90;;;;;;4958586;28;20177;-79
2021/07/17 05:28:03;;;;;;;13.45;7.97;;;18.20;99.90;;;;;;4960371;28;20728;-78
2021/07/17 05:30:29;;;;;;;12.60;6.50;;;18.20;99.90;;;;;;4958112;28;20193;-78
2021/07/17 05:32:55;;;;;;;12.43;8.10;;;18.20;99.90;;;;;;4962295;28;20331;-78
2021/07/17 05:35:21;;;;;;;19.52;8.80;;;18.30;99.90;;;;;;4960911;28;20244;-78
2021/07/17 05:37:47;;;;;;;11.75;7.93;;;18.40;99.90;;;;;;4960883;28;20216;-79
2021/07/17 05:40:13;;;;;;;17.45;7.50;;;18.40;99.90;;;;;;4951961;28;20727;-80
2021/07/17 05:42:38;;;;;;;17.58;7.97;;;18.40;99.90;;;;;;4947466;28;20700;-80
2021/07/17 05:45:05;;;;;;;13.30;7.43;;;18.40;99.90;;;;;;4947308;28;20181;-78
2021/07/17 05:47:30;;;;;;;14.80;8.05;;;18.40;99.90;;;;;;4953853;28;20201;-79
2021/07/17 05:49:56;;;;;;;19.95;7.15;;;18.40;99.90;;;;;;4960486;28;20280;-79
2021/07/17 05:52:22;;;;;;;10.75;7.32;;;18.40;99.90;;;;;;4957879;28;20666;-79
2021/07/17 05:54:47;;;;;;;17.45;7.35;;;18.40;99.90;;;;;;4952867;28;20574;-79
2021/07/17 05:57:13;;;;;;;10.82;6.72;;;18.40;99.90;;;;;;4964506;28;20208;-78
2021/07/17 05:59:38;;;;;;;11.40;6.25;;;18.40;99.90;;;;;;4958340;28;20459;-78
2021/07/17 06:02:06;;;;;;;14.77;8.45;;;18.40;99.90;;;;;;4959121;28;20213;-79
2021/07/17 06:04:31;;;;;;;14.00;7.10;;;18.40;99.90;;;;;;4958163;28;20682;-79
2021/07/17 06:06:57;;;;;;;11.10;7.22;;;18.40;99.90;;;;;;4948853;28;20221;-78
2021/07/17 06:09:24;;;;;;;14.00;7.38;;;18.50;99.90;;;;;;4954305;28;20268;-79
2021/07/17 06:11:50;;;;;;;14.27;6.78;;;18.60;99.90;;;;;;4950837;28;20200;-78
2021/07/17 06:14:16;;;;;;;17.40;8.70;;;18.70;99.90;;;;;;4948898;28;20189;-78
2021/07/17 06:16:41;;;;;;;13.80;8.07;;;18.80;99.90;;;;;;4952340;28;20224;-78
2021/07/17 06:19:07;;;;;;;14.98;8.20;;;18.90;99.90;;;;;;4954545;28;20189;-78
2021/07/17 06:21:33;;;;;;;14.13;7.38;;;19.00;99.90;;;;;;4955002;28;20191;-78
2021/07/17 06:23:59;;;;;;;11.48;6.97;;;19.30;99.90;;;;;;4950429;28;20368;-79
2021/07/17 06:26:24;;;;;;;11.02;6.57;;;19.40;99.90;;;;;;4955263;28;20812;-78
2021/07/17 06:28:50;;;;;;;15.85;7.45;;;19.50;99.90;;;;;;4959213;28;20303;-78
2021/07/17 06:31:17;;;;;;;14.00;6.65;;;19.50;99.90;;;;;;4960826;28;20190;-79
2021/07/17 06:33:43;;;;;;;12.73;7.13;;;19.60;99.90;;;;;;4945601;28;20200;-78
2021/07/17 06:36:09;;;;;;;15.57;7.63;;;19.60;99.90;;;;;;4952530;28;20362;-78
2021/07/17 06:38:34;;;;;;;17.08;8.60;;;19.50;99.90;;;;;;4945157;28;20205;-79
2021/07/17 06:41:01;;;;;;;15.98;7.78;;;19.50;99.90;;;;;;4947649;28;20567;-78
2021/07/17 06:43:28;;;;;;;16.45;8.23;;;19.40;99.90;;;;;;4947876;28;20609;-77
2021/07/17 06:45:53;;;;;;;15.75;8.13;;;19.40;99.90;;;;;;4954929;28;20185;-78
2021/07/17 06:48:19;;;;;;;16.42;7.85;;;19.20;99.90;;;;;;4958297;28;20300;-77
2021/07/17 06:50:45;;;;;;;14.13;7.97;;;19.20;99.90;;;;;;4958705;28;20181;-78
2021/07/17 06:53:14;;;;;;;14.85;8.02;;;19.30;99.90;;;;;;4957295;28;20207;-78
2021/07/17 06:55:40;;;;;;;14.90;8.02;;;19.20;99.90;;;;;;4954227;28;20193;-78
2021/07/17 06:58:06;;;;;;;13.30;7.55;;;19.20;99.90;;;;;;4955773;28;20709;-78
2021/07/17 07:00:34;;;;;;;17.60;8.65;;;19.20;99.90;;;;;;4957310;28;20181;-79
2021/07/17 07:03:00;;;;;;;12.50;8.57;;;19.20;99.90;;;;;;4954721;28;20300;-78
2021/07/17 07:05:26;;;;;;;12.68;7.57;;;19.20;99.90;;;;;;4950381;28;20200;-77
2021/07/17 07:07:52;;;;;;;12.25;7.65;;;19.20;99.90;;;;;;4946983;28;20292;-80
2021/07/17 07:10:18;;;;;;;16.42;8.48;;;19.20;99.90;;;;;;4957728;28;20288;-80
2021/07/17 07:12:44;;;;;;;13.40;8.10;;;19.20;99.90;;;;;;4955225;28;20186;-80
2021/07/17 07:15:10;;;;;;;22.17;8.80;;;19.20;99.90;;;;;;4947274;28;20655;-78
2021/07/17 07:17:37;;;;;;;15.05;7.13;;;19.20;99.90;;;;;;4956756;28;20204;-78
2021/07/17 07:20:04;;;;;;;15.35;8.55;;;19.20;99.90;;;;;;4952975;28;20189;-80
2021/07/17 07:22:30;;;;;;;20.48;8.25;;;19.30;99.90;;;;;;4947804;28;20691;-78
2021/07/17 07:24:56;;;;;;;10.68;7.10;;;19.50;99.90;;;;;;4948503;28;20273;-79
2021/07/17 07:27:21;;;;;;;16.67;7.53;;;19.60;99.90;;;;;;4960839;28;20201;-78
2021/07/17 07:29:47;;;;;;;12.18;6.88;;;19.80;99.90;;;;;;4947780;28;20683;-79
2021/07/17 07:32:36;;;;;;;10.98;6.75;;;19.90;99.90;;;;;;4955119;28;20189;-79
2021/07/17 07:35:02;;;;;;;13.57;6.88;;;20.20;99.90;;;;;;4952600;28;20584;-78
2021/07/17 07:37:28;;;;;;;10.73;6.47;;;20.30;99.90;;;;;;4947368;28;20513;-78
2021/07/17 07:39:55;;;;;;;13.05;7.00;;;20.60;99.90;;;;;;4960194;28;20460;-77
2021/07/17 07:42:23;;;;;;;12.18;6.93;;;20.90;99.90;;;;;;4957356;28;20593;-77
2021/07/17 07:44:48;;;;;;;14.30;6.32;;;20.90;99.90;;;;;;4950945;28;20189;-76
2021/07/17 07:47:14;;;;;;;10.30;6.35;;;21.10;99.90;;;;;;4946003;28;20201;-76
2021/07/17 07:49:40;;;;;;;12.40;6.20;;;21.40;99.90;;;;;;4953584;28;20191;-75
2021/07/17 07:52:05;;;;;;;11.48;5.45;;;21.80;99.90;;;;;;4950281;28;20209;-78
2021/07/17 07:54:31;;;;;;;12.68;6.10;;;22.00;99.90;;;;;;4953080;28;20445;-76
2021/07/17 07:56:56;;;;;;;11.55;6.63;;;22.10;99.90;;;;;;4948754;28;20239;-79
2021/07/17 07:59:22;;;;;;;9.50;5.88;;;22.10;99.90;;;;;;4946093;28;20212;-79
2021/07/17 08:01:47;;;;;;;10.48;5.40;;;22.10;99.90;;;;;;4949896;28;20186;-76
2021/07/17 08:04:13;;;;;;;6.32;4.95;;;22.20;99.90;;;;;;4953863;28;20308;-78
2021/07/17 08:06:39;;;;;;;13.27;6.03;;;22.30;99.90;;;;;;4957987;28;20181;-78
2021/07/17 08:09:04;;;;;;;7.25;4.80;;;22.30;99.90;;;;;;4945911;28;20183;-77
2021/07/17 08:11:30;;;;;;;11.90;6.13;;;22.20;99.90;;;;;;4948554;28;20602;-77
2021/07/17 08:13:55;;;;;;;8.50;5.50;;;22.20;99.90;;;;;;4961970;28;20185;-79
2021/07/17 08:16:21;;;;;;;11.48;6.03;;;22.20;99.90;;;;;;4957123;28;20712;-79
2021/07/17 08:18:47;;;;;;;6.65;5.25;;;22.20;99.90;;;;;;4959765;28;20244;-78
2021/07/17 08:21:12;;;;;;;7.32;4.68;;;22.10;99.90;;;;;;4958059;28;20189;-76
2021/07/17 08:23:38;;;;;;;11.80;5.95;;;22.10;99.90;;;;;;4954278;28;20248;-76
2021/07/17 08:26:04;;;;;;;10.80;5.15;;;22.10;99.90;;;;;;4956720;28;20748;-76
2021/07/17 08:28:29;;;;;;;9.35;5.00;;;22.10;99.90;;;;;;4954477;28;20236;-78
2021/07/17 08:30:55;;;;;;;6.65;4.75;;;22.40;99.90;;;;;;4959313;28;20179;-77
2021/07/17 08:33:21;;;;;;;9.35;5.53;;;22.50;99.90;;;;;;4958946;28;20621;-77
2021/07/17 08:35:46;;;;;;;8.02;4.40;;;22.70;99.90;;;;;;4957687;28;20254;-79
2021/07/17 08:38:12;;;;;;;9.93;5.40;;;22.90;99.90;;;;;;4953376;28;20201;-81
2021/07/17 08:40:38;;;;;;;7.95;4.25;;;23.10;99.90;;;;;;4956897;28;20276;-79
2021/07/17 08:43:04;;;;;;;5.75;4.65;;;23.10;99.90;;;;;;4960008;28;20312;-78
2021/07/17 08:45:29;;;;;;;6.30;5.07;;;23.00;99.90;;;;;;4951500;28;20723;-78
2021/07/17 08:47:57;;;;;;;8.23;5.28;;;22.90;99.90;;;;;;4955388;28;20202;-82
2021/07/17 08:50:25;;;;;;;9.30;4.72;;;23.00;99.90;;;;;;4945985;28;20205;-76
2021/07/17 08:52:55;;;;;;;7.80;4.95;;;23.40;99.90;;;;;;4952047;28;20185;-79
2021/07/17 08:55:24;;;;;;;5.30;4.28;;;23.90;99.90;;;;;;4961055;28;20210;-78
2021/07/17 08:57:49;;;;;;;6.32;4.18;;;23.80;99.90;;;;;;4963005;28;20210;-78
2021/07/17 09:00:19;;;;;;;8.57;4.65;;;23.90;99.90;;;;;;4961279;28;20228;-78
2021/07/17 09:02:47;;;;;;;9.00;5.10;;;24.20;99.90;;;;;;4961138;28;20280;-76
2021/07/17 09:05:16;;;;;;;9.57;5.03;;;24.40;99.90;;;;;;4960830;28;20201;-79
2021/07/17 09:07:43;;;;;;;7.22;4.80;;;24.60;99.90;;;;;;4951477;28;20293;-78
2021/07/17 09:10:34;;;;;;;9.35;5.07;;;24.80;99.90;;;;;;4960692;28;20253;-78
2021/07/17 09:13:07;;;;;;;8.27;4.63;;;24.90;99.90;;;;;;4967475;28;20181;-78
2021/07/17 09:15:34;;;;;;;5.03;3.83;;;25.30;99.90;;;;;;4951733;28;20178;-77
2021/07/17 09:18:00;;;;;;;6.20;4.07;;;25.70;99.90;;;;;;4961475;28;20212;-79
2021/07/17 09:20:26;;;;;;;9.02;4.80;;;25.70;99.90;;;;;;4951841;28;20181;-77
2021/07/17 09:23:09;;;;;;;10.57;5.50;;;25.80;99.90;;;;;;4950564;28;20216;-79
2021/07/17 09:25:40;;;;;;;8.80;4.97;;;25.70;99.90;;;;;;4961239;28;20558;-77
2021/07/17 09:28:25;;;;;;;6.38;3.80;;;25.50;99.90;;;;;;4959630;28;20209;-75
2021/07/17 09:30:54;;;;;;;7.85;4.57;;;25.40;99.90;;;;;;4966208;28;20177;-77
2021/07/17 09:33:19;;;;;;;10.35;4.63;;;25.50;99.90;;;;;;4961119;28;20189;-78
2021/07/17 09:35:49;;;;;;;6.47;4.50;;;25.20;99.90;;;;;;4958171;28;20185;-77
2021/07/17 09:38:18;;;;;;;6.30;4.53;;;25.10;99.90;;;;;;4958447;28;20209;-76
2021/07/17 09:40:52;;;;;;;5.80;4.32;;;25.10;99.90;;;;;;4959647;28;20189;-77
2021/07/17 09:43:27;;;;;;;6.85;4.10;;;25.30;99.90;;;;;;4959486;28;20204;-76
2021/07/17 09:45:53;;;;;;;5.00;3.83;;;25.40;99.90;;;;;;4949376;28;20192;-77
2021/07/17 09:48:23;;;;;;;5.40;3.65;;;25.50;99.90;;;;;;4964881;28;20202;-77
2021/07/17 09:50:51;;;;;;;6.00;4.35;;;25.50;99.90;;;;;;4958770;28;20193;-77
2021/07/17 09:53:49;;;;;;;6.95;4.15;;;25.50;99.90;;;;;;4971995;28;20304;-78
2021/07/17 09:56:23;;;;;;;5.32;4.00;;;25.50;99.90;;;;;;4959849;28;20185;-77
2021/07/17 09:58:50;;;;;;;6.55;4.13;;;25.30;99.90;;;;;;4957903;28;20185;-79
2021/07/17 10:01:20;;;;;;;4.93;3.67;;;25.30;99.90;;;;;;4957484;28;20196;-77
2021/07/17 10:03:48;;;;;;;6.22;4.30;;;25.10;99.90;;;;;;4960279;28;20247;-78
2021/07/17 10:06:41;;;;;;;5.22;3.90;;;25.30;99.90;;;;;;4959098;28;20209;-76
2021/07/17 10:09:23;;;;;;;5.50;3.78;;;25.20;99.90;;;;;;4955701;28;20193;-78
2021/07/17 10:12:15;;;;;;;5.15;3.70;;;25.30;99.90;;;;;;4960834;28;20276;-78
2021/07/17 10:14:42;;;;;;;6.95;4.63;;;25.30;99.90;;;;;;4955403;28;21007;-78
2021/07/17 10:17:16;;;;;;;5.60;3.80;;;25.50;99.90;;;;;;4956215;28;20197;-78
2021/07/17 10:19:43;;;;;;;5.97;3.95;;;25.50;99.90;;;;;;4960050;28;20166;-79
2021/07/17 10:22:11;;;;;;;5.05;3.72;;;25.70;99.90;;;;;;4960177;28;20790;-78
2021/07/17 10:24:37;;;;;;;6.50;3.67;;;25.70;99.90;;;;;;4950599;28;20290;-77
2021/07/17 10:27:05;;;;;;;8.55;3.80;;;25.90;99.90;;;;;;4959121;28;20193;-78
2021/07/17 10:29:31;;;;;;;5.78;3.58;;;26.20;99.90;;;;;;4956713;28;20662;-77
2021/07/17 10:31:59;;;;;;;3.88;3.13;;;26.50;99.90;;;;;;4958639;28;20181;-78
2021/07/17 10:34:25;;;;;;;5.05;3.30;;;26.60;99.90;;;;;;4957679;28;20707;-81
2021/07/17 10:37:09;;;;;;;5.22;3.47;;;26.70;99.90;;;;;;4957885;28;20236;-76
2021/07/17 10:39:39;;;;;;;7.88;4.30;;;26.70;99.90;;;;;;4959033;28;20188;-80
2021/07/17 10:42:12;;;;;;;4.05;3.65;;;26.70;99.90;;;;;;4958951;28;20224;-77
2021/07/17 10:44:55;;;;;;;3.42;3.13;;;26.90;99.90;;;;;;4957121;28;20665;-79
2021/07/17 10:47:22;;;;;;;5.32;3.30;;;27.10;99.90;;;;;;4945876;28;20217;-77
2021/07/17 10:49:50;;;;;;;4.28;3.05;;;27.00;99.90;;;;;;4958661;28;20181;-77
2021/07/17 10:52:43;;;;;;;3.95;3.28;;;27.10;99.90;;;;;;4956929;28;20196;-79
2021/07/17 10:55:29;;;;;;;5.85;3.75;;;27.40;99.90;;;;;;4957404;28;20200;-78
2021/07/17 10:58:00;;;;;;;5.95;3.25;;;27.50;99.90;;;;;;4964471;28;20736;-78
2021/07/17 11:00:49;;;;;;;4.13;2.97;;;27.70;99.90;;;;;;4947751;28;20679;-78
2021/07/17 11:03:24;;;;;;;5.53;3.58;;;27.50;99.90;;;;;;4958165;28;20566;-77
2021/07/17 11:05:50;;;;;;;4.10;2.88;;;27.80;99.90;;;;;;4955655;28;20200;-77
2021/07/17 11:08:35;;;;;;;5.78;3.83;;;27.80;99.90;;;;;;4956044;28;20296;-77
2021/07/17 11:11:27;;;;;;;4.55;3.10;;;28.00;99.90;;;;;;4954347;28;20185;-77
2021/07/17 11:13:54;;;;;;;3.55;3.10;;;28.30;99.90;;;;;;4956706;28;20185;-77
2021/07/17 11:16:46;;;;;;;4.25;3.03;;;28.40;99.90;;;;;;4955444;28;20305;-79
2021/07/17 11:19:28;;;;;;;2.97;2.70;;;28.60;99.90;;;;;;4946402;28;20213;-79
2021/07/17 11:22:12;;;;;;;3.20;2.60;;;28.70;99.90;;;;;;4952742;28;20602;-78
2021/07/17 11:24:39;;;;;;;3.33;2.88;;;29.20;99.90;;;;;;4945609;28;20188;-76
2021/07/17 11:27:17;;;;;;;3.05;2.70;;;29.20;99.90;;;;;;4948788;28;20208;-79
2021/07/17 11:29:45;;;;;;;3.97;3.00;;;29.40;99.90;;;;;;4944367;28;20832;-76
2021/07/17 11:32:11;;;;;;;3.78;2.70;;;29.80;99.90;;;;;;4950813;28;20458;-78
2021/07/17 11:34:44;;;;;;;3.47;3.17;;;29.80;99.90;;;;;;4950512;28;20185;-77
2021/07/17 11:37:12;;;;;;;3.13;2.72;;;29.80;99.90;;;;;;4953579;28;20220;-78
2021/07/17 11:39:40;;;;;;;3.20;2.83;;;29.50;99.90;;;;;;4950133;28;20216;-77
2021/07/17 11:42:08;;;;;;;3.05;2.72;;;29.10;99.90;;;;;;4949802;28;20194;-77
2021/07/17 11:44:36;;;;;;;3.08;2.78;;;28.90;99.90;;;;;;4958837;28;20185;-78
2021/07/17 11:47:05;;;;;;;3.30;3.00;;;28.80;99.90;;;;;;4949218;28;20228;-76
2021/07/17 11:49:34;;;;;;;2.58;2.30;;;28.90;99.90;;;;;;4957712;28;20190;-78
2021/07/17 11:52:02;;;;;;;2.50;2.30;;;29.10;99.90;;;;;;4954930;28;20506;-80
2021/07/17 11:54:33;;;;;;;2.22;2.00;;;29.10;99.90;;;;;;4964563;28;20268;-78
2021/07/17 11:57:13;;;;;;;2.35;2.15;;;29.20;99.90;;;;;;4958614;28;20229;-78
2021/07/17 11:59:48;;;;;;;4.00;2.20;;;29.00;99.90;;;;;;4957250;28;20181;-78
2021/07/17 12:02:17;;;;;;;3.17;2.50;;;28.90;99.90;;;;;;4954894;28;20211;-78
2021/07/17 12:04:48;;;;;;;2.38;1.85;;;28.40;99.90;;;;;;4962088;28;20193;-78
2021/07/17 12:07:19;;;;;;;2.70;2.03;;;28.20;99.90;;;;;;4948674;28;20209;-78
2021/07/17 12:09:46;;;;;;;2.17;1.80;;;28.10;99.90;;;;;;4951000;28;20265;-79
2021/07/17 12:12:18;;;;;;;2.22;1.90;;;27.90;99.90;;;;;;4961870;28;20222;-85
2021/07/17 12:14:45;;;;;;;1.67;1.50;;;28.00;99.90;;;;;;4953511;28;20188;-79
2021/07/17 12:17:10;;;;;;;2.88;1.75;;;27.90;99.90;;;;;;4958017;28;20603;-79
2021/07/17 12:19:36;;;;;;;2.55;1.60;;;28.00;99.90;;;;;;4954724;28;20779;-78
2021/07/17 12:22:03;;;;;;;1.60;1.50;;;27.90;99.90;;;;;;4948733;28;20320;-77
2021/07/17 12:24:29;;;;;;;2.03;1.60;;;27.90;99.90;;;;;;4948533;28;20205;-77
2021/07/17 12:27:04;;;;;;;2.90;1.30;;;28.00;99.90;;;;;;4950969;28;20733;-77
2021/07/17 12:29:30;;;;;;;1.35;1.25;;;27.90;99.90;;;;;;4954382;28;20204;-77
2021/07/17 12:32:00;;;;;;;1.77;1.38;;;27.90;99.90;;;;;;4951888;28;20265;-79
2021/07/17 12:34:26;;;;;;;1.38;1.27;;;27.90;99.90;;;;;;4951559;28;20391;-78
2021/07/17 12:36:52;;;;;;;1.20;1.10;;;28.00;99.90;;;;;;4961691;28;20836;-79
2021/07/17 12:39:21;;;;;;;1.52;1.23;;;28.10;99.90;;;;;;4963245;28;20174;-77
2021/07/17 12:41:51;;;;;;;2.08;1.20;;;28.00;99.90;;;;;;4952906;28;20185;-79
2021/07/17 12:44:17;;;;;;;1.23;0.93;;;27.80;99.90;;;;;;4949130;28;20336;-77